createdAt,value
2018-11-14T00:01:57.337Z,12.00
2018-11-14T00:05:03.391Z,12.83
2018-11-14T00:08:08.433Z,12.47
2018-11-14T00:11:13.465Z,14.67
2018-11-14T00:14:19.114Z,10.97
2018-11-14T00:17:24.318Z,13.63
2018-11-14T00:20:31.142Z,14.67
2018-11-14T00:23:35.882Z,8.17
2018-11-14T00:26:48.537Z,13.50
2018-11-14T00:30:01.601Z,13.10
2018-11-14T00:33:08.783Z,11.60
2018-11-14T00:36:21.028Z,15.77
2018-11-14T00:39:25.631Z,15.27
2018-11-14T00:46:21.703Z,14.67
2018-11-14T00:49:27.726Z,11.67
2018-11-14T00:52:33.483Z,19.40
2018-11-14T00:55:38.017Z,17.47
2018-11-14T00:58:43.844Z,11.30
2018-11-14T01:01:48.338Z,13.70
2018-11-14T01:04:54.282Z,10.63
2018-11-14T01:07:59.504Z,16.63
2018-11-14T01:11:05.257Z,13.30
2018-11-14T01:14:11.966Z,9.33
2018-11-14T01:30:21.925Z,10.23
2018-11-14T01:33:29.850Z,11.37
2018-11-14T01:36:34.626Z,12.10
2018-11-14T01:39:40.480Z,11.33
2018-11-14T01:42:47.218Z,14.97
2018-11-14T01:46:12.151Z,21.70
2018-11-14T01:49:32.532Z,13.40
2018-11-14T01:56:04.436Z,12.43
2018-11-14T01:59:10.292Z,15.43
2018-11-14T02:02:15.010Z,15.43
2018-11-14T02:05:28.250Z,14.50
2018-11-14T02:08:41.167Z,15.47
2018-11-14T02:11:50.119Z,17.57
2018-11-14T02:14:57.825Z,14.40
2018-11-14T02:18:02.921Z,20.00
2018-11-14T02:21:08.346Z,20.90
2018-11-14T02:24:15.299Z,14.30
2018-11-14T02:27:19.578Z,15.40
2018-11-14T02:30:28.589Z,13.53
2018-11-14T02:33:34.258Z,20.90
2018-11-14T02:36:39.889Z,15.87
2018-11-14T02:39:45.126Z,18.17
2018-11-14T02:42:50.164Z,16.97
2018-11-14T02:45:55.139Z,11.90
2018-11-14T02:49:00.208Z,16.47
2018-11-14T02:52:06.141Z,16.20
2018-11-14T02:58:27.081Z,15.13
2018-11-14T03:01:32.672Z,13.00
2018-11-14T03:04:38.331Z,17.67
2018-11-14T03:07:45.637Z,14.97
2018-11-14T03:10:54.463Z,16.40
2018-11-14T03:14:00.652Z,19.20
2018-11-14T03:20:51.623Z,12.87
2018-11-14T03:23:58.450Z,18.17
2018-11-14T03:27:10.644Z,18.20
2018-11-14T03:34:03.776Z,15.67
2018-11-14T03:37:09.391Z,17.47
2018-11-14T03:40:15.979Z,14.87
2018-11-14T03:43:21.473Z,15.60
2018-11-14T03:46:32.096Z,15.37
2018-11-14T03:49:37.441Z,12.33
2018-11-14T03:52:43.297Z,10.80
2018-11-14T03:55:47.841Z,14.33
2018-11-14T03:58:56.205Z,11.10
2018-11-14T04:02:01.930Z,20.23
2018-11-14T04:05:07.999Z,10.97
2018-11-14T04:08:13.569Z,14.80
2018-11-14T04:11:26.533Z,11.60
2018-11-14T04:14:33.819Z,19.93
2018-11-14T04:17:45.512Z,20.13
2018-11-14T04:20:50.918Z,13.63
2018-11-14T04:23:57.437Z,14.87
2018-11-14T04:27:02.570Z,25.60
2018-11-14T04:30:10.666Z,21.60
2018-11-14T04:33:17.430Z,15.20
2018-11-14T04:53:15.398Z,12.90
2018-11-14T04:56:28.424Z,17.17
2018-11-14T04:59:47.838Z,13.40
2018-11-14T05:09:22.168Z,9.23
2018-11-14T05:12:27.402Z,15.00
2018-11-14T05:15:33.154Z,18.70
2018-11-14T05:18:47.028Z,20.30
2018-11-14T05:21:52.303Z,19.43
2018-11-14T05:24:58.656Z,17.97
2018-11-14T05:28:04.287Z,25.70
2018-11-14T05:31:12.389Z,20.27
2018-11-14T05:34:18.454Z,21.23
2018-11-14T05:37:23.841Z,21.00
2018-11-14T05:40:30.702Z,23.93
2018-11-14T05:43:35.914Z,19.10
2018-11-14T05:46:40.516Z,23.40
2018-11-14T05:49:46.569Z,20.23
2018-11-14T05:52:54.671Z,16.07
2018-11-14T05:55:59.074Z,22.83
2018-11-14T05:59:03.452Z,15.73
2018-11-14T06:02:08.183Z,18.80
2018-11-14T06:05:12.627Z,21.13
2018-11-14T06:08:24.784Z,17.87
2018-11-14T06:11:32.911Z,24.93
2018-11-14T06:14:37.260Z,22.60
2018-11-14T06:17:42.679Z,19.60
2018-11-14T06:20:48.256Z,23.67
2018-11-14T06:23:52.701Z,25.10
2018-11-14T06:26:57.057Z,23.83
2018-11-14T06:30:01.725Z,27.73
2018-11-14T06:33:09.028Z,22.23
2018-11-14T06:36:13.348Z,25.53
2018-11-14T06:39:19.944Z,34.20
2018-11-14T06:42:26.303Z,23.87
2018-11-14T06:45:32.147Z,24.50
2018-11-14T06:48:38.255Z,38.10
2018-11-14T06:51:43.179Z,24.10
2018-11-14T06:54:54.467Z,23.80
2018-11-14T06:57:58.906Z,36.80
2018-11-14T07:01:03.440Z,41.13
2018-11-14T07:04:07.982Z,41.10
2018-11-14T07:07:12.531Z,41.23
2018-11-14T07:11:28.507Z,43.73
2018-11-14T07:14:32.894Z,38.90
2018-11-14T07:17:37.319Z,47.03
2018-11-14T07:20:46.729Z,39.40
2018-11-14T07:23:52.959Z,42.03
2018-11-14T07:26:58.137Z,35.67
2018-11-14T07:30:04.300Z,45.13
2018-11-14T07:33:16.865Z,42.07
2018-11-14T07:36:21.276Z,48.27
2018-11-14T07:39:25.922Z,49.43
2018-11-14T07:42:31.521Z,48.10
2018-11-14T07:45:35.866Z,51.10
2018-11-14T07:48:40.730Z,41.20
2018-11-14T07:51:45.146Z,47.87
2018-11-14T07:55:00.334Z,39.80
2018-11-14T07:58:04.678Z,41.77
2018-11-14T08:01:11.430Z,42.07
2018-11-14T08:04:15.967Z,51.17
2018-11-14T08:07:36.181Z,49.57
2018-11-14T08:10:40.809Z,64.80
2018-11-14T08:17:18.730Z,54.97
2018-11-14T08:20:23.014Z,50.37
2018-11-14T08:26:39.756Z,47.17
2018-11-14T08:33:08.391Z,48.87
2018-11-14T08:36:12.818Z,53.87
2018-11-14T08:39:17.306Z,56.67
2018-11-14T08:42:28.101Z,53.13
2018-11-14T08:45:33.563Z,47.17
2018-11-14T08:48:43.833Z,43.27
2018-11-14T08:51:49.691Z,46.90
2018-11-14T08:54:59.202Z,54.97
2018-11-14T08:58:05.037Z,47.93
2018-11-14T09:01:12.035Z,46.60
2018-11-14T09:04:19.777Z,54.60
2018-11-14T09:07:39.158Z,45.70
2018-11-14T09:17:08.463Z,46.20
2018-11-14T09:20:37.375Z,43.43
2018-11-14T09:23:42.437Z,51.67
2018-11-14T09:30:03.381Z,38.10
2018-11-14T09:33:07.783Z,40.50
2018-11-14T09:36:12.252Z,37.13
2018-11-14T09:39:16.695Z,45.10
2018-11-14T09:42:25.816Z,50.73
2018-11-14T09:45:33.383Z,51.73
2018-11-14T09:48:39.052Z,38.50
2018-11-14T09:51:50.513Z,48.77
2018-11-14T09:55:11.820Z,38.90
2018-11-14T09:58:18.664Z,37.77
2018-11-14T10:01:23.213Z,41.30
2018-11-14T10:04:29.085Z,41.67
2018-11-14T10:07:35.889Z,37.60
2018-11-14T10:10:43.380Z,42.53
2018-11-14T10:13:52.933Z,43.73
2018-11-14T10:17:04.798Z,37.50
2018-11-14T10:20:11.910Z,36.27
2018-11-14T10:23:39.730Z,38.43
2018-11-14T10:26:46.431Z,30.20
2018-11-14T10:29:53.721Z,39.20
2018-11-14T10:33:04.080Z,43.33
2018-11-14T10:36:09.739Z,37.53
2018-11-14T10:39:29.267Z,40.03
2018-11-14T10:42:34.251Z,32.40
2018-11-14T10:45:40.467Z,38.93
2018-11-14T10:48:45.964Z,37.20
2018-11-14T10:51:56.303Z,41.17
2018-11-14T10:55:01.363Z,42.90
2018-11-14T10:58:06.265Z,43.40
2018-11-14T11:01:16.043Z,48.03
2018-11-14T11:04:25.987Z,48.47
2018-11-14T11:10:58.705Z,49.50
2018-11-14T11:14:14.079Z,57.27
2018-11-14T11:17:22.775Z,49.10
2018-11-14T11:20:27.119Z,51.83
2018-11-14T11:23:43.884Z,56.57
2018-11-14T11:30:33.459Z,42.20
2018-11-14T11:33:40.185Z,60.00
2018-11-14T11:40:22.640Z,51.70
2018-11-14T11:43:27.248Z,44.33
2018-11-14T11:46:31.975Z,53.87
2018-11-14T11:49:40.270Z,59.57
2018-11-14T11:52:45.990Z,60.50
2018-11-14T11:55:58.388Z,59.77
2018-11-14T11:59:03.540Z,63.83
2018-11-14T12:02:08.617Z,62.20
2018-11-14T12:05:16.232Z,62.10
2018-11-14T12:08:20.604Z,61.63
2018-11-14T12:11:24.942Z,59.57
2018-11-14T12:14:29.278Z,56.30
2018-11-14T12:17:33.675Z,67.40
2018-11-14T12:20:38.534Z,64.83
2018-11-14T12:23:44.790Z,67.33
2018-11-14T12:26:51.487Z,70.87
2018-11-14T12:29:56.564Z,68.40
2018-11-14T12:33:00.865Z,89.03
2018-11-14T12:36:05.886Z,93.87
2018-11-14T12:39:11.015Z,77.03
2018-11-14T12:42:16.102Z,64.33
2018-11-14T12:45:20.632Z,60.93
2018-11-14T12:48:24.941Z,57.90
2018-11-14T12:51:29.417Z,63.63
2018-11-14T12:54:33.932Z,62.47
2018-11-14T12:57:38.488Z,62.40
2018-11-14T13:00:42.874Z,64.90
2018-11-14T13:03:47.940Z,68.73
2018-11-14T13:06:52.559Z,69.53
2018-11-14T13:09:58.737Z,81.50
2018-11-14T13:13:03.682Z,81.00
2018-11-14T13:16:08.025Z,78.17
2018-11-14T13:19:13.737Z,71.70
2018-11-14T13:22:18.480Z,77.37
2018-11-14T13:25:23.162Z,71.97
2018-11-14T13:31:42.791Z,76.13
2018-11-14T13:34:47.637Z,82.57
2018-11-14T13:37:52.629Z,71.77
2018-11-14T13:40:58.107Z,71.87
2018-11-14T13:44:03.821Z,76.33
2018-11-14T13:47:08.373Z,76.77
2018-11-14T13:50:17.727Z,84.70
2018-11-14T13:53:23.336Z,78.40
2018-11-14T13:59:40.696Z,63.63
2018-11-14T14:02:47.107Z,71.10
2018-11-14T14:05:52.156Z,81.13
2018-11-14T14:08:56.533Z,73.70
2018-11-14T14:12:00.884Z,76.73
2018-11-14T14:15:07.875Z,69.17
2018-11-14T14:18:15.311Z,67.23
2018-11-14T14:21:20.653Z,73.93
2018-11-14T14:24:27.504Z,75.47
2018-11-14T14:27:32.688Z,64.57
2018-11-14T14:30:37.128Z,68.63
2018-11-14T14:33:41.727Z,69.73
2018-11-14T14:36:47.748Z,67.43
2018-11-14T14:39:55.798Z,68.43
2018-11-14T14:43:00.076Z,65.03
2018-11-14T14:46:04.422Z,59.77
2018-11-14T14:49:08.720Z,64.17
2018-11-14T14:52:16.934Z,70.10
2018-11-14T14:55:23.772Z,77.83
2018-11-14T14:58:28.214Z,75.77
2018-11-14T15:01:37.080Z,78.97
2018-11-14T15:04:58.247Z,83.87
2018-11-14T15:08:02.605Z,87.20
2018-11-14T15:11:07.425Z,96.83
2018-11-14T15:14:11.785Z,101.13
2018-11-14T15:17:16.165Z,94.23
2018-11-14T15:20:21.986Z,95.57
2018-11-14T15:23:26.703Z,96.17
2018-11-14T15:26:35.944Z,101.17
2018-11-14T15:29:40.489Z,100.87
2018-11-14T15:32:46.224Z,98.77
2018-11-14T15:35:52.282Z,101.27
2018-11-14T15:38:56.715Z,98.60
2018-11-14T15:42:04.271Z,95.30
2018-11-14T15:45:24.538Z,90.00
2018-11-14T15:48:40.086Z,91.77
2018-11-14T15:51:44.594Z,81.77
2018-11-14T15:54:49.029Z,76.93
2018-11-14T15:57:57.448Z,82.37
2018-11-14T16:01:01.952Z,71.40
2018-11-14T16:04:06.901Z,87.10
2018-11-14T16:07:11.191Z,71.43
2018-11-14T16:10:19.538Z,79.47
2018-11-14T16:13:25.597Z,78.83
2018-11-14T16:16:29.918Z,75.20
2018-11-14T16:22:46.945Z,70.20
2018-11-14T16:25:58.728Z,72.53
2018-11-14T16:32:24.769Z,66.80
2018-11-14T16:35:49.737Z,81.47
2018-11-14T16:38:58.813Z,69.77
2018-11-14T16:42:08.958Z,75.17
2018-11-14T16:45:18.523Z,83.27
2018-11-14T16:48:30.948Z,71.43
2018-11-14T16:54:50.522Z,77.40
2018-11-14T17:02:55.232Z,83.90
2018-11-14T17:06:00.451Z,71.97
2018-11-14T17:09:14.681Z,71.50
2018-11-14T17:12:21.335Z,75.67
2018-11-14T17:15:30.034Z,76.03
2018-11-14T17:18:39.492Z,65.37
2018-11-14T17:21:44.843Z,71.47
2018-11-14T17:29:12.475Z,74.97
2018-11-14T17:32:17.264Z,74.03
2018-11-14T17:35:39.017Z,71.93
2018-11-14T17:42:01.140Z,73.60
2018-11-14T17:45:12.655Z,75.70
2018-11-14T17:48:19.454Z,83.23
2018-11-14T17:51:25.496Z,78.20
2018-11-14T17:54:31.817Z,78.80
2018-11-14T17:57:42.265Z,84.80
2018-11-14T18:00:48.478Z,68.07
2018-11-14T18:07:16.685Z,89.00
2018-11-14T18:10:25.993Z,81.30
2018-11-14T18:13:35.816Z,80.70
2018-11-14T18:16:41.455Z,88.13
2018-11-14T18:19:50.124Z,77.97
2018-11-14T18:22:55.344Z,80.87
2018-11-14T18:26:02.215Z,82.53
2018-11-14T18:29:07.466Z,77.40
2018-11-14T18:32:16.065Z,85.87
2018-11-14T18:40:48.369Z,78.67
2018-11-14T18:44:00.062Z,81.63
2018-11-14T18:47:13.014Z,83.73
2018-11-14T18:53:40.722Z,79.57
2018-11-14T18:56:48.826Z,73.07
2018-11-14T18:59:58.573Z,79.00
2018-11-14T19:03:07.043Z,79.80
2018-11-14T19:06:11.811Z,82.27
2018-11-14T19:09:18.678Z,74.97
2018-11-14T19:12:25.231Z,79.67
2018-11-14T19:15:31.593Z,73.40
2018-11-14T19:18:37.551Z,78.70
2018-11-14T19:21:42.970Z,70.60
2018-11-14T19:24:51.776Z,74.70
2018-11-14T19:31:29.002Z,68.57
2018-11-14T19:34:34.649Z,68.17
2018-11-14T19:37:41.723Z,69.90
2018-11-14T19:40:47.411Z,75.87
2018-11-14T19:43:53.789Z,75.03
2018-11-14T19:46:58.739Z,67.43
2018-11-14T19:50:03.698Z,64.40
2018-11-14T19:53:09.335Z,66.70
2018-11-14T19:56:14.971Z,69.83
2018-11-14T19:59:19.800Z,69.50
2018-11-14T20:02:25.375Z,70.13
2018-11-14T20:05:30.480Z,59.47
2018-11-14T20:08:37.648Z,65.57
2018-11-14T20:11:42.847Z,66.00
2018-11-14T20:14:48.279Z,61.03
2018-11-14T20:17:54.393Z,63.47
2018-11-14T20:21:00.887Z,70.07
2018-11-14T20:24:12.524Z,60.27
2018-11-14T20:27:18.921Z,55.50
2018-11-14T20:30:28.261Z,56.90
2018-11-14T20:36:51.841Z,56.77
2018-11-14T20:40:03.995Z,59.20
2018-11-14T20:43:08.718Z,60.90
2018-11-14T20:46:14.204Z,57.13
2018-11-14T20:49:27.396Z,64.00
2018-11-14T20:52:47.115Z,64.47
2018-11-14T20:55:58.017Z,59.13
2018-11-14T20:59:02.422Z,61.90
2018-11-14T21:02:08.349Z,53.70
2018-11-14T21:05:21.155Z,55.03
2018-11-14T21:11:42.632Z,55.83
2018-11-14T21:14:47.874Z,56.53
2018-11-14T21:17:54.755Z,56.97
2018-11-14T21:24:13.038Z,54.07
2018-11-14T21:27:19.033Z,49.17
2018-11-14T21:30:25.893Z,54.70
2018-11-14T21:33:33.000Z,60.53
2018-11-14T21:36:42.212Z,52.03
2018-11-14T21:39:47.107Z,48.50
2018-11-14T21:42:52.465Z,54.53
2018-11-14T21:46:08.462Z,45.80
2018-11-14T21:49:19.245Z,46.47
2018-11-14T21:52:29.944Z,46.67
2018-11-14T21:55:36.334Z,51.20
2018-11-14T21:58:42.567Z,46.43
2018-11-14T22:01:47.561Z,48.53
2018-11-14T22:04:53.121Z,47.57
2018-11-14T22:07:59.489Z,49.17
2018-11-14T22:11:06.624Z,47.60
2018-11-14T22:14:11.627Z,42.57
2018-11-14T22:17:16.920Z,43.30
2018-11-14T22:20:23.188Z,45.67
2018-11-14T22:23:30.752Z,42.50
2018-11-14T22:26:35.552Z,43.30
2018-11-14T22:29:41.745Z,46.40
2018-11-14T22:32:46.741Z,43.30
2018-11-14T22:35:52.033Z,43.60
2018-11-14T22:38:58.612Z,48.77
2018-11-14T22:42:05.124Z,41.73
2018-11-14T22:45:13.352Z,46.30
2018-11-14T22:48:18.401Z,39.93
2018-11-14T22:51:24.220Z,41.27
2018-11-14T22:54:29.787Z,42.57
2018-11-14T22:57:34.686Z,38.23
2018-11-14T23:00:44.380Z,43.67
